| time (UTC) | temp F | wind direction | speed knots | gust knots | rain 1hr in | rain 24hr in | rain mn in | humidity % | barometer mb |
| 20260507105016 | 67 | 225 | 1.7 | 4.3 | 0.17 | 1.00 | 0.84 | 94 | 1009.4 |
| 20260507104017 | 67 | 158 | 2.6 | 8.7 | 0.10 | 0.93 | 0.77 | 94 | 1009.0 |
| 20260507103016 | 67 | 158 | 2.6 | 6.1 | 0.07 | 0.90 | 0.74 | 94 | 1008.2 |
| 20260507102037 | 67 | 180 | 1.7 | 3.5 | 0.06 | 0.89 | 0.73 | 94 | 1009.3 |
| 20260507101016 | 67 | 180 | 0.9 | 3.5 | 0.05 | 0.88 | 0.72 | 94 | 1009.6 |
| 20260507100036 | 67 | 180 | 1.7 | 6.1 | 0.01 | 0.84 | 0.68 | 94 | 1009.7 |
| 20260507095017 | 67 | 158 | 1.7 | 6.1 | 0.00 | 0.83 | 0.67 | 94 | 1010.0 |
| 20260507094036 | 67 | 180 | 1.7 | 7.0 | 0.00 | 0.83 | 0.67 | 94 | 1009.8 |
| 20260507093037 | 67 | 158 | 3.5 | 7.8 | 0.00 | 0.83 | 0.67 | 94 | 1009.8 |
| 20260507092016 | 67 | 158 | 2.6 | 7.0 | 0.00 | 0.83 | 0.67 | 94 | 1010.0 |
| 20260507091017 | 67 | 158 | 1.7 | 5.2 | 0.00 | 0.83 | 0.67 | 94 | 1010.2 |
| 20260507090016 | 67 | 180 | 1.7 | 5.2 | 0.00 | 0.83 | 0.67 | 94 | 1010.6 |
| 20260507085016 | 67 | 180 | 1.7 | 3.5 | 0.00 | 0.83 | 0.67 | 94 | 1010.8 |
| 20260507084016 | 67 | 180 | 1.7 | 3.5 | 0.01 | 0.83 | 0.67 | 94 | 1010.4 |
| 20260507083056 | 67 | 180 | 1.7 | 5.2 | 0.01 | 0.83 | 0.67 | 94 | 1010.5 |
| 20260507082036 | 67 | 225 | 1.7 | 3.5 | 0.02 | 0.83 | 0.67 | 93 | 1010.1 |
| 20260507081016 | 67 | 180 | 0.9 | 2.6 | 0.08 | 0.83 | 0.67 | 93 | 1009.9 |
| 20260507080016 | 67 | 225 | 0.9 | 2.6 | 0.11 | 0.83 | 0.67 | 93 | 1009.6 |
| 20260507075016 | 67 | 180 | 1.7 | 7.0 | 0.15 | 0.83 | 0.67 | 93 | 1009.9 |
| 20260507074016 | 66 | 225 | 2.6 | 7.0 | 0.16 | 0.82 | 0.66 | 93 | 1010.6 |
| 20260507073016 | 66 | 180 | 3.5 | 7.0 | 0.18 | 0.82 | 0.66 | 93 | 1009.2 |
| 20260507072016 | 67 | 113 | 6.1 | 11.3 | 0.18 | 0.81 | 0.65 | 93 | 1008.8 |
| 20260507071016 | 67 | 225 | 2.6 | 6.1 | 0.14 | 0.75 | 0.59 | 93 | 1012.1 |
| 20260507070016 | 67 | 180 | 2.6 | 5.2 | 0.18 | 0.72 | 0.56 | 92 | 1011.3 |
| 20260507065016 | 67 | 180 | 1.7 | 3.5 | 0.19 | 0.68 | 0.52 | 92 | 1011.3 |
| 20260507064015 | 67 | 225 | 0.9 | 3.5 | 0.21 | 0.66 | 0.50 | 92 | 1011.1 |
| 20260507063016 | 67 | 180 | 2.6 | 9.6 | 0.23 | 0.64 | 0.48 | 92 | 1011.0 |
| 20260507062016 | 67 | 135 | 1.7 | 3.5 | 0.24 | 0.63 | 0.47 | 92 | 1010.5 |
| 20260507061035 | 68 | 180 | 1.7 | 4.3 | 0.26 | 0.61 | 0.45 | 92 | 1011.6 |
| 20260507060015 | 68 | 180 | 0.9 | 3.5 | 0.22 | 0.54 | 0.38 | 92 | 1012.0 |
| 20260507055016 | 68 | 225 | 2.6 | 5.2 | 0.20 | 0.49 | 0.33 | 92 | 1011.9 |
| 20260507054016 | 68 | 180 | 3.5 | 7.8 | 0.19 | 0.45 | 0.29 | 92 | 1011.6 |
| 20260507053017 | 68 | 225 | 3.5 | 8.7 | 0.19 | 0.41 | 0.25 | 92 | 1012.0 |
| 20260507052036 | 68 | 248 | 2.6 | 7.0 | 0.20 | 0.39 | 0.23 | 92 | 1011.5 |
| 20260507051036 | 68 | 180 | 4.3 | 14.8 | 0.17 | 0.35 | 0.19 | 91 | 1011.8 |
| 20260507050016 | 68 | 225 | 3.5 | 7.8 | 0.16 | 0.32 | 0.16 | 91 | 1011.7 |
| 20260507045019 | 68 | 225 | 4.3 | 12.2 | 0.15 | 0.29 | 0.13 | 91 | 1011.5 |
| 20260507044015 | 68 | 203 | 3.5 | 7.8 | 0.14 | 0.26 | 0.10 | 91 | 1011.8 |
| 20260507043020 | 69 | 180 | 3.5 | 7.8 | 0.12 | 0.22 | 0.06 | 91 | 1012.0 |
| 20260507042015 | 69 | 225 | 2.6 | 7.8 | 0.11 | 0.19 | 0.03 | 91 | 1011.8 |
| 20260507041018 | 69 | 203 | 2.6 | 9.6 | 0.12 | 0.18 | 0.02 | 90 | 1011.9 |
| 20260507040017 | 69 | 225 | 3.5 | 9.6 | 0.11 | 0.16 | 0.16 | 90 | 1011.7 |
| 20260507035057 | 69 | 180 | 4.3 | 9.6 | 0.10 | 0.14 | 0.14 | 90 | 1011.6 |
| 20260507034017 | 69 | 225 | 3.5 | 6.1 | 0.09 | 0.12 | 0.12 | 90 | 1012.2 |
| 20260507033016 | 69 | 225 | 1.7 | 4.3 | 0.08 | 0.10 | 0.10 | 89 | 1012.2 |
| 20260507032017 | 69 | 225 | 2.6 | 5.2 | 0.07 | 0.08 | 0.08 | 89 | 1012.6 |
| 20260507031016 | 70 | 225 | 2.6 | 4.3 | 0.05 | 0.06 | 0.06 | 88 | 1012.6 |
| 20260507030017 | 70 | 248 | 3.5 | 7.8 | 0.05 | 0.05 | 0.05 | 87 | 1012.1 |
| 20260507025017 | 70 | 203 | 2.6 | 6.1 | 0.04 | 0.04 | 0.04 | 85 | 1011.7 |
| 20260507024018 | 71 | 225 | 2.6 | 7.8 | 0.03 | 0.03 | 0.03 | 84 | 1012.1 |
| 20260507023017 | 72 | 225 | 2.6 | 7.8 | 0.02 | 0.02 | 0.02 | 83 | 1011.9 |
| 20260507022019 | 72 | 0.0 | 1.7 | 0.01 | 0.01 | 0.01 | 82 | 1011.5 | |
| 20260507021038 | 73 | 0.0 | 1.7 | 0.01 | 0.01 | 0.01 | 79 | 1010.9 | |
| 20260507020017 | 74 | 180 | 0.9 | 3.5 | 0.00 | 0.00 | 0.00 | 77 | 1010.9 |
| 20260507015018 | 75 | 225 | 2.6 | 7.0 | 0.00 | 0.00 | 0.00 | 74 | 1011.5 |
| 20260507014017 | 75 | 225 | 1.7 | 4.3 | 0.00 | 0.00 | 0.00 | 72 | 1011.4 |
| 20260507013017 | 76 | 203 | 0.9 | 1.7 | 0.00 | 0.00 | 0.00 | 71 | 1010.9 |
| 20260507012017 | 76 | 180 | 1.7 | 3.5 | 0.00 | 0.00 | 0.00 | 71 | 1010.9 |
| 20260507011018 | 77 | 0.0 | 1.7 | 0.00 | 0.00 | 0.00 | 70 | 1011.3 | |
| 20260507010017 | 77 | 0.0 | 0.9 | 0.00 | 0.00 | 0.00 | 70 | 1011.4 | |
| 20260507005038 | 77 | 0.0 | 1.7 | 0.00 | 0.00 | 0.00 | 69 | 1011.1 | |
| 20260507004017 | 78 | 0.0 | 1.7 | 0.00 | 0.00 | 0.00 | 68 | 1011.4 | |
| 20260507003017 | 78 | 0.0 | 1.7 | 0.00 | 0.00 | 0.00 | 67 | 1011.7 | |
| 20260507002038 | 78 | 225 | 0.9 | 1.7 | 0.00 | 0.00 | 0.00 | 67 | 1011.5 |
| 20260507001017 | 79 | 225 | 0.9 | 2.6 | 0.00 | 0.00 | 0.00 | 67 | 1011.3 |
| 20260507000017 | 79 | 248 | 0.9 | 2.6 | 0.00 | 0.00 | 0.00 | 67 | 1011.3 |
| 20260506235038 | 79 | 180 | 2.6 | 6.1 | 0.00 | 0.00 | 0.00 | 66 | 1010.9 |
| 20260506234017 | 80 | 225 | 1.7 | 7.0 | 0.00 | 0.00 | 0.00 | 65 | 1011.3 |
| 20260506233018 | 80 | 225 | 0.9 | 3.5 | 0.00 | 0.00 | 0.00 | 65 | 1010.8 |
| 20260506232017 | 80 | 180 | 0.9 | 3.5 | 0.00 | 0.00 | 0.00 | 64 | 1010.4 |
| 20260506231037 | 81 | 180 | 1.7 | 6.1 | 0.00 | 0.00 | 0.00 | 64 | 1010.8 |
| 20260506230037 | 81 | 225 | 0.9 | 2.6 | 0.00 | 0.00 | 0.00 | 63 | 1011.2 |
| 20260506225018 | 81 | 225 | 1.7 | 4.3 | 0.00 | 0.00 | 0.00 | 63 | 1011.6 |
| 20260506224037 | 81 | 180 | 1.7 | 5.2 | 0.00 | 0.00 | 0.00 | 62 | 1011.0 |
| 20260506223017 | 82 | 180 | 1.7 | 3.5 | 0.00 | 0.00 | 0.00 | 61 | 1011.1 |
| 20260506222038 | 82 | 225 | 1.7 | 4.3 | 0.00 | 0.00 | 0.00 | 60 | 1011.2 |
| 20260506221018 | 83 | 225 | 2.6 | 8.7 | 0.00 | 0.00 | 0.00 | 59 | 1011.1 |
| 20260506220017 | 83 | 225 | 1.7 | 5.2 | 0.00 | 0.00 | 0.00 | 59 | 1011.0 |
| 20260506215017 | 84 | 225 | 3.5 | 11.3 | 0.00 | 0.00 | 0.00 | 57 | 1011.2 |
| 20260506214017 | 84 | 225 | 2.6 | 7.8 | 0.00 | 0.00 | 0.00 | 57 | 1011.0 |
| 20260506213017 | 85 | 225 | 2.6 | 5.2 | 0.00 | 0.00 | 0.00 | 56 | 1011.0 |
| 20260506212019 | 85 | 225 | 5.2 | 10.4 | 0.00 | 0.00 | 0.00 | 55 | 1011.2 |
| 20260506211017 | 86 | 225 | 3.5 | 8.7 | 0.00 | 0.00 | 0.00 | 55 | 1011.2 |
| 20260506210017 | 86 | 225 | 3.5 | 8.7 | 0.00 | 0.00 | 0.00 | 57 | 1011.5 |
| 20260506205019 | 85 | 225 | 1.7 | 5.2 | 0.00 | 0.00 | 0.00 | 56 | 1011.7 |
| 20260506204037 | 85 | 225 | 4.3 | 12.2 | 0.00 | 0.00 | 0.00 | 55 | 1011.9 |
| 20260506203017 | 85 | 248 | 3.5 | 9.6 | 0.00 | 0.00 | 0.00 | 55 | 1012.0 |
| 20260506202017 | 85 | 225 | 4.3 | 8.7 | 0.00 | 0.00 | 0.00 | 53 | 1012.2 |
| 20260506201017 | 86 | 225 | 4.3 | 9.6 | 0.00 | 0.00 | 0.00 | 55 | 1012.4 |
| 20260506200016 | 85 | 225 | 5.2 | 9.6 | 0.00 | 0.00 | 0.00 | 55 | 1012.4 |
| 20260506195018 | 85 | 225 | 4.3 | 10.4 | 0.00 | 0.00 | 0.00 | 54 | 1012.6 |
| 20260506194017 | 86 | 225 | 3.5 | 10.4 | 0.00 | 0.00 | 0.00 | 53 | 1012.8 |
| 20260506193016 | 85 | 225 | 4.3 | 12.2 | 0.00 | 0.00 | 0.00 | 54 | 1013.0 |
| 20260506192018 | 85 | 225 | 3.5 | 7.8 | 0.00 | 0.00 | 0.00 | 54 | 1013.1 |
| 20260506191037 | 85 | 225 | 4.3 | 10.4 | 0.00 | 0.00 | 0.00 | 54 | 1013.1 |
| 20260506190018 | 85 | 225 | 4.3 | 10.4 | 0.00 | 0.00 | 0.00 | 53 | 1013.3 |
| 20260506185016 | 85 | 225 | 6.1 | 12.2 | 0.00 | 0.00 | 0.00 | 53 | 1013.5 |
| 20260506184017 | 85 | 225 | 5.2 | 11.3 | 0.00 | 0.00 | 0.00 | 50 | 1013.6 |
| 20260506183016 | 85 | 180 | 4.3 | 10.4 | 0.00 | 0.00 | 0.00 | 51 | 1013.5 |
| 20260506182017 | 85 | 225 | 4.3 | 8.7 | 0.00 | 0.00 | 0.00 | 49 | 1013.5 |
| 20260506181016 | 85 | 225 | 4.3 | 8.7 | 0.00 | 0.00 | 0.00 | 48 | 1013.6 |
| 20260506180017 | 84 | 180 | 4.3 | 12.2 | 0.00 | 0.00 | 0.00 | 49 | 1013.5 |
| 20260506175017 | 84 | 225 | 4.3 | 11.3 | 0.00 | 0.00 | 0.00 | 48 | 1013.6 |
| 20260506174016 | 83 | 225 | 4.3 | 11.3 | 0.00 | 0.00 | 0.00 | 48 | 1013.8 |
| 20260506173016 | 83 | 248 | 5.2 | 12.2 | 0.00 | 0.00 | 0.00 | 48 | 1013.8 |
| 20260506172039 | 83 | 248 | 2.6 | 7.0 | 0.00 | 0.00 | 0.00 | 52 | 1014.0 |
| 20260506171017 | 83 | 225 | 4.3 | 10.4 | 0.00 | 0.00 | 0.00 | 48 | 1014.2 |
| 20260506170016 | 83 | 225 | 3.5 | 7.8 | 0.00 | 0.00 | 0.00 | 50 | 1014.2 |
| 20260506165017 | 82 | 225 | 4.3 | 9.6 | 0.00 | 0.00 | 0.00 | 55 | 1014.4 |
| 20260506164016 | 82 | 225 | 5.2 | 10.4 | 0.00 | 0.00 | 0.00 | 55 | 1014.6 |
| 20260506163016 | 81 | 225 | 3.5 | 7.8 | 0.00 | 0.00 | 0.00 | 60 | 1014.8 |
| 20260506162016 | 81 | 225 | 5.2 | 10.4 | 0.00 | 0.00 | 0.00 | 56 | 1014.9 |
| 20260506161016 | 80 | 225 | 4.3 | 9.6 | 0.00 | 0.00 | 0.00 | 58 | 1015.1 |
| 20260506160137 | 80 | 248 | 3.5 | 8.7 | 0.00 | 0.00 | 0.00 | 59 | 1015.1 |
| 20260506155016 | 80 | 225 | 5.2 | 13.9 | 0.00 | 0.00 | 0.00 | 60 | 1014.9 |
| 20260506154036 | 79 | 225 | 3.5 | 8.7 | 0.00 | 0.00 | 0.00 | 63 | 1014.9 |
| 20260506153016 | 78 | 158 | 4.3 | 8.7 | 0.00 | 0.00 | 0.00 | 62 | 1014.9 |
| 20260506152039 | 78 | 225 | 4.3 | 8.7 | 0.00 | 0.00 | 0.00 | 66 | 1014.9 |
| 20260506151017 | 76 | 225 | 3.5 | 8.7 | 0.00 | 0.00 | 0.00 | 67 | 1014.9 |
| 20260506150017 | 76 | 225 | 3.5 | 9.6 | 0.00 | 0.00 | 0.00 | 70 | 1015.0 |
| 20260506145037 | 75 | 225 | 3.5 | 8.7 | 0.00 | 0.00 | 0.00 | 71 | 1014.7 |
| 20260506144018 | 74 | 225 | 4.3 | 8.7 | 0.00 | 0.00 | 0.00 | 72 | 1014.7 |
| 20260506143036 | 74 | 225 | 4.3 | 9.6 | 0.00 | 0.00 | 0.00 | 73 | 1014.7 |
| 20260506142017 | 73 | 225 | 3.5 | 7.8 | 0.00 | 0.00 | 0.00 | 74 | 1014.6 |
| 20260506141016 | 73 | 180 | 1.7 | 3.5 | 0.00 | 0.00 | 0.00 | 75 | 1014.4 |
| 20260506140036 | 72 | 180 | 2.6 | 5.2 | 0.00 | 0.00 | 0.00 | 77 | 1014.1 |
| 20260506135017 | 71 | 225 | 3.5 | 9.6 | 0.00 | 0.00 | 0.00 | 78 | 1014.2 |
| 20260506134017 | 70 | 180 | 2.6 | 7.8 | 0.00 | 0.00 | 0.00 | 81 | 1014.0 |
| 20260506133036 | 68 | 158 | 3.5 | 7.8 | 0.00 | 0.00 | 0.00 | 82 | 1014.1 |
| 20260506132017 | 68 | 203 | 2.6 | 6.1 | 0.00 | 0.00 | 0.00 | 82 | 1014.1 |
| 20260506131016 | 67 | 180 | 1.7 | 6.1 | 0.00 | 0.00 | 0.00 | 83 | 1014.0 |
| 20260506130016 | 67 | 180 | 2.6 | 6.1 | 0.00 | 0.00 | 0.00 | 82 | 1014.1 |
| 20260506125018 | 66 | 180 | 1.7 | 5.2 | 0.00 | 0.00 | 0.00 | 83 | 1013.9 |
| 20260506124037 | 66 | 180 | 1.7 | 5.2 | 0.00 | 0.00 | 0.00 | 84 | 1013.8 |
| 20260506123016 | 66 | 203 | 1.7 | 4.3 | 0.00 | 0.00 | 0.00 | 84 | 1013.8 |
| 20260506122016 | 65 | 225 | 1.7 | 2.6 | 0.00 | 0.00 | 0.00 | 83 | 1013.8 |
| 20260506121016 | 65 | 225 | 0.9 | 1.7 | 0.00 | 0.00 | 0.00 | 83 | 1013.7 |
| 20260506120017 | 65 | 225 | 1.7 | 3.5 | 0.00 | 0.00 | 0.00 | 83 | 1013.8 |
| 20260506115036 | 65 | 225 | 1.7 | 3.5 | 0.00 | 0.00 | 0.00 | 83 | 1013.7 |
| 20260506114018 | 65 | 225 | 1.7 | 3.5 | 0.00 | 0.00 | 0.00 | 83 | 1013.6 |
| 20260506113036 | 65 | 225 | 1.7 | 5.2 | 0.00 | 0.00 | 0.00 | 83 | 1013.4 |
| 20260506112037 | 65 | 225 | 0.9 | 2.6 | 0.00 | 0.00 | 0.00 | 83 | 1013.2 |
| 20260506111016 | 65 | 203 | 0.9 | 2.6 | 0.00 | 0.00 | 0.00 | 83 | 1012.9 |
| 20260506110016 | 64 | 225 | 0.9 | 4.3 | 0.00 | 0.00 | 0.00 | 83 | 1012.8 |